sensor_id;sensor_type;location;lat;lon;timestamp;P1;durP1;ratioP1;P2;durP2;ratioP2
36445;SDS011;22472;50.848;-1.216;2023-07-29T00:00:59;7.30;;;2.50;;
36445;SDS011;22472;50.848;-1.216;2023-07-29T00:03:26;8.55;;;2.55;;
36445;SDS011;22472;50.848;-1.216;2023-07-29T00:05:55;9.60;;;2.80;;
36445;SDS011;22472;50.848;-1.216;2023-07-29T00:08:24;9.07;;;2.75;;
36445;SDS011;22472;50.848;-1.216;2023-07-29T00:10:51;9.38;;;2.50;;
36445;SDS011;22472;50.848;-1.216;2023-07-29T00:13:20;10.73;;;2.75;;
36445;SDS011;22472;50.848;-1.216;2023-07-29T00:15:47;5.93;;;2.28;;
36445;SDS011;22472;50.848;-1.216;2023-07-29T00:18:14;9.45;;;3.15;;
36445;SDS011;22472;50.848;-1.216;2023-07-29T00:20:42;9.25;;;2.58;;
36445;SDS011;22472;50.848;-1.216;2023-07-29T00:23:09;6.70;;;2.22;;
36445;SDS011;22472;50.848;-1.216;2023-07-29T00:25:36;5.97;;;2.47;;
36445;SDS011;22472;50.848;-1.216;2023-07-29T00:28:04;10.38;;;2.67;;
36445;SDS011;22472;50.848;-1.216;2023-07-29T00:30:32;6.63;;;2.45;;
36445;SDS011;22472;50.848;-1.216;2023-07-29T00:33:00;8.20;;;2.53;;
36445;SDS011;22472;50.848;-1.216;2023-07-29T00:35:27;6.20;;;2.40;;
36445;SDS011;22472;50.848;-1.216;2023-07-29T00:37:55;9.57;;;2.15;;
36445;SDS011;22472;50.848;-1.216;2023-07-29T00:40:22;8.40;;;2.42;;
36445;SDS011;22472;50.848;-1.216;2023-07-29T00:42:50;6.38;;;2.40;;
36445;SDS011;22472;50.848;-1.216;2023-07-29T00:45:17;11.57;;;2.60;;
36445;SDS011;22472;50.848;-1.216;2023-07-29T00:47:46;7.65;;;2.30;;
36445;SDS011;22472;50.848;-1.216;2023-07-29T00:50:14;8.38;;;2.08;;
36445;SDS011;22472;50.848;-1.216;2023-07-29T00:52:42;9.10;;;2.47;;
36445;SDS011;22472;50.848;-1.216;2023-07-29T00:55:09;7.90;;;2.70;;
36445;SDS011;22472;50.848;-1.216;2023-07-29T00:57:36;9.30;;;2.35;;
36445;SDS011;22472;50.848;-1.216;2023-07-29T01:00:05;7.55;;;2.10;;
36445;SDS011;22472;50.848;-1.216;2023-07-29T01:02:33;8.32;;;2.28;;
36445;SDS011;22472;50.848;-1.216;2023-07-29T01:05:02;10.48;;;2.13;;
36445;SDS011;22472;50.848;-1.216;2023-07-29T01:07:31;10.02;;;2.53;;
36445;SDS011;22472;50.848;-1.216;2023-07-29T01:12:29;7.88;;;2.50;;
36445;SDS011;22472;50.848;-1.216;2023-07-29T01:15:05;10.15;;;2.40;;
36445;SDS011;22472;50.848;-1.216;2023-07-29T01:17:37;7.28;;;2.35;;
36445;SDS011;22472;50.848;-1.216;2023-07-29T01:22:35;11.20;;;2.50;;
36445;SDS011;22472;50.848;-1.216;2023-07-29T01:25:05;7.60;;;2.90;;
36445;SDS011;22472;50.848;-1.216;2023-07-29T01:27:33;11.23;;;2.80;;
36445;SDS011;22472;50.848;-1.216;2023-07-29T01:30:00;11.13;;;2.80;;
36445;SDS011;22472;50.848;-1.216;2023-07-29T01:32:29;10.88;;;2.78;;
36445;SDS011;22472;50.848;-1.216;2023-07-29T01:35:03;10.35;;;2.53;;
36445;SDS011;22472;50.848;-1.216;2023-07-29T01:37:32;9.60;;;2.45;;
36445;SDS011;22472;50.848;-1.216;2023-07-29T01:40:00;9.25;;;2.60;;
36445;SDS011;22472;50.848;-1.216;2023-07-29T01:42:29;8.25;;;2.50;;
36445;SDS011;22472;50.848;-1.216;2023-07-29T01:44:57;9.88;;;2.28;;
36445;SDS011;22472;50.848;-1.216;2023-07-29T01:47:24;10.27;;;3.03;;
36445;SDS011;22472;50.848;-1.216;2023-07-29T01:49:51;9.10;;;2.60;;
36445;SDS011;22472;50.848;-1.216;2023-07-29T01:52:19;10.02;;;2.78;;
36445;SDS011;22472;50.848;-1.216;2023-07-29T01:54:46;7.93;;;2.38;;
36445;SDS011;22472;50.848;-1.216;2023-07-29T01:57:13;10.15;;;2.47;;
36445;SDS011;22472;50.848;-1.216;2023-07-29T01:59:42;12.13;;;2.53;;
36445;SDS011;22472;50.848;-1.216;2023-07-29T02:02:09;8.27;;;2.30;;
36445;SDS011;22472;50.848;-1.216;2023-07-29T02:04:36;5.05;;;1.90;;
36445;SDS011;22472;50.848;-1.216;2023-07-29T02:07:04;9.15;;;2.00;;
36445;SDS011;22472;50.848;-1.216;2023-07-29T02:09:31;8.02;;;1.83;;
36445;SDS011;22472;50.848;-1.216;2023-07-29T02:11:59;9.23;;;1.67;;
36445;SDS011;22472;50.848;-1.216;2023-07-29T02:14:26;6.55;;;1.77;;
36445;SDS011;22472;50.848;-1.216;2023-07-29T02:16:54;9.50;;;2.00;;
36445;SDS011;22472;50.848;-1.216;2023-07-29T02:19:22;6.68;;;2.15;;
36445;SDS011;22472;50.848;-1.216;2023-07-29T02:21:49;7.00;;;2.00;;
36445;SDS011;22472;50.848;-1.216;2023-07-29T02:24:16;8.50;;;2.38;;
36445;SDS011;22472;50.848;-1.216;2023-07-29T02:26:44;8.75;;;2.33;;
36445;SDS011;22472;50.848;-1.216;2023-07-29T02:29:11;5.03;;;1.65;;
36445;SDS011;22472;50.848;-1.216;2023-07-29T02:31:38;10.52;;;1.90;;
36445;SDS011;22472;50.848;-1.216;2023-07-29T02:34:07;7.13;;;1.77;;
36445;SDS011;22472;50.848;-1.216;2023-07-29T02:36:34;8.30;;;2.25;;
36445;SDS011;22472;50.848;-1.216;2023-07-29T02:39:02;8.20;;;1.75;;
36445;SDS011;22472;50.848;-1.216;2023-07-29T02:41:29;4.15;;;1.70;;
36445;SDS011;22472;50.848;-1.216;2023-07-29T02:43:56;7.32;;;2.00;;
36445;SDS011;22472;50.848;-1.216;2023-07-29T02:46:24;7.15;;;1.98;;
36445;SDS011;22472;50.848;-1.216;2023-07-29T02:48:51;6.97;;;1.50;;
36445;SDS011;22472;50.848;-1.216;2023-07-29T02:51:20;9.65;;;1.70;;
36445;SDS011;22472;50.848;-1.216;2023-07-29T02:53:47;4.60;;;1.60;;
36445;SDS011;22472;50.848;-1.216;2023-07-29T02:56:14;4.05;;;1.38;;
36445;SDS011;22472;50.848;-1.216;2023-07-29T02:58:42;4.97;;;1.50;;
36445;SDS011;22472;50.848;-1.216;2023-07-29T03:01:09;4.75;;;1.20;;
36445;SDS011;22472;50.848;-1.216;2023-07-29T03:03:37;3.67;;;1.23;;
36445;SDS011;22472;50.848;-1.216;2023-07-29T03:06:04;4.22;;;1.08;;
36445;SDS011;22472;50.848;-1.216;2023-07-29T03:08:34;3.55;;;1.10;;
36445;SDS011;22472;50.848;-1.216;2023-07-29T03:11:04;2.70;;;1.13;;
36445;SDS011;22472;50.848;-1.216;2023-07-29T03:13:33;4.18;;;1.05;;
36445;SDS011;22472;50.848;-1.216;2023-07-29T03:16:04;3.42;;;0.90;;
36445;SDS011;22472;50.848;-1.216;2023-07-29T03:18:31;3.17;;;0.90;;
36445;SDS011;22472;50.848;-1.216;2023-07-29T03:20:59;2.78;;;1.02;;
36445;SDS011;22472;50.848;-1.216;2023-07-29T03:23:27;3.35;;;1.08;;
36445;SDS011;22472;50.848;-1.216;2023-07-29T03:25:56;4.35;;;1.30;;
36445;SDS011;22472;50.848;-1.216;2023-07-29T03:28:23;4.75;;;0.82;;
36445;SDS011;22472;50.848;-1.216;2023-07-29T03:30:51;4.75;;;1.10;;
36445;SDS011;22472;50.848;-1.216;2023-07-29T03:33:18;5.43;;;1.10;;
36445;SDS011;22472;50.848;-1.216;2023-07-29T03:35:46;2.08;;;0.68;;
36445;SDS011;22472;50.848;-1.216;2023-07-29T03:38:13;1.88;;;0.80;;
36445;SDS011;22472;50.848;-1.216;2023-07-29T03:40:41;2.53;;;0.80;;
36445;SDS011;22472;50.848;-1.216;2023-07-29T03:43:09;5.05;;;0.98;;
36445;SDS011;22472;50.848;-1.216;2023-07-29T03:45:37;3.28;;;1.20;;
36445;SDS011;22472;50.848;-1.216;2023-07-29T03:48:04;5.10;;;1.08;;
36445;SDS011;22472;50.848;-1.216;2023-07-29T03:50:33;2.78;;;0.82;;
36445;SDS011;22472;50.848;-1.216;2023-07-29T03:53:00;2.63;;;0.65;;
36445;SDS011;22472;50.848;-1.216;2023-07-29T03:55:28;3.70;;;0.80;;
36445;SDS011;22472;50.848;-1.216;2023-07-29T03:57:56;4.57;;;1.00;;
36445;SDS011;22472;50.848;-1.216;2023-07-29T04:00:25;4.95;;;1.13;;
36445;SDS011;22472;50.848;-1.216;2023-07-29T04:02:52;3.30;;;0.90;;
36445;SDS011;22472;50.848;-1.216;2023-07-29T04:05:19;4.03;;;0.90;;
36445;SDS011;22472;50.848;-1.216;2023-07-29T04:07:47;3.60;;;1.10;;
36445;SDS011;22472;50.848;-1.216;2023-07-29T04:10:14;2.38;;;0.82;;
36445;SDS011;22472;50.848;-1.216;2023-07-29T04:12:42;5.20;;;1.17;;
36445;SDS011;22472;50.848;-1.216;2023-07-29T04:15:10;4.95;;;1.30;;
36445;SDS011;22472;50.848;-1.216;2023-07-29T04:17:38;2.88;;;1.10;;
36445;SDS011;22472;50.848;-1.216;2023-07-29T04:20:06;5.55;;;1.30;;
36445;SDS011;22472;50.848;-1.216;2023-07-29T04:22:34;3.60;;;1.20;;
36445;SDS011;22472;50.848;-1.216;2023-07-29T04:25:01;4.93;;;1.70;;
36445;SDS011;22472;50.848;-1.216;2023-07-29T04:27:29;4.47;;;1.60;;
36445;SDS011;22472;50.848;-1.216;2023-07-29T04:29:57;7.30;;;1.65;;
36445;SDS011;22472;50.848;-1.216;2023-07-29T04:32:25;3.70;;;1.42;;
36445;SDS011;22472;50.848;-1.216;2023-07-29T04:34:53;5.78;;;1.45;;
36445;SDS011;22472;50.848;-1.216;2023-07-29T04:37:20;5.95;;;1.85;;
36445;SDS011;22472;50.848;-1.216;2023-07-29T04:39:48;6.53;;;2.00;;
36445;SDS011;22472;50.848;-1.216;2023-07-29T04:42:15;5.20;;;2.20;;
36445;SDS011;22472;50.848;-1.216;2023-07-29T04:44:42;7.55;;;1.85;;
36445;SDS011;22472;50.848;-1.216;2023-07-29T04:47:10;9.48;;;1.90;;
36445;SDS011;22472;50.848;-1.216;2023-07-29T04:49:37;6.03;;;1.65;;
36445;SDS011;22472;50.848;-1.216;2023-07-29T04:52:06;5.78;;;1.92;;
36445;SDS011;22472;50.848;-1.216;2023-07-29T04:54:33;4.57;;;1.80;;
36445;SDS011;22472;50.848;-1.216;2023-07-29T04:57:01;6.22;;;2.00;;
36445;SDS011;22472;50.848;-1.216;2023-07-29T04:59:28;4.10;;;1.80;;
36445;SDS011;22472;50.848;-1.216;2023-07-29T05:01:55;6.15;;;1.80;;
36445;SDS011;22472;50.848;-1.216;2023-07-29T05:04:23;6.47;;;1.65;;
36445;SDS011;22472;50.848;-1.216;2023-07-29T05:06:50;4.78;;;1.73;;
36445;SDS011;22472;50.848;-1.216;2023-07-29T05:09:19;5.78;;;1.65;;
36445;SDS011;22472;50.848;-1.216;2023-07-29T05:11:46;6.70;;;2.00;;
36445;SDS011;22472;50.848;-1.216;2023-07-29T05:14:14;5.63;;;1.63;;
36445;SDS011;22472;50.848;-1.216;2023-07-29T05:16:41;7.10;;;2.10;;
36445;SDS011;22472;50.848;-1.216;2023-07-29T05:19:09;6.20;;;1.60;;
36445;SDS011;22472;50.848;-1.216;2023-07-29T05:21:37;7.10;;;1.92;;
36445;SDS011;22472;50.848;-1.216;2023-07-29T05:24:04;7.35;;;2.00;;
36445;SDS011;22472;50.848;-1.216;2023-07-29T05:26:33;8.60;;;2.00;;
36445;SDS011;22472;50.848;-1.216;2023-07-29T05:29:00;7.00;;;1.75;;
36445;SDS011;22472;50.848;-1.216;2023-07-29T05:31:29;7.57;;;1.77;;
36445;SDS011;22472;50.848;-1.216;2023-07-29T05:33:56;4.90;;;1.55;;
36445;SDS011;22472;50.848;-1.216;2023-07-29T05:36:23;5.10;;;2.00;;
36445;SDS011;22472;50.848;-1.216;2023-07-29T05:38:51;5.45;;;1.80;;
36445;SDS011;22472;50.848;-1.216;2023-07-29T05:41:18;6.03;;;1.50;;
36445;SDS011;22472;50.848;-1.216;2023-07-29T05:43:47;6.28;;;1.77;;
36445;SDS011;22472;50.848;-1.216;2023-07-29T05:46:14;7.70;;;1.77;;
36445;SDS011;22472;50.848;-1.216;2023-07-29T05:48:42;6.07;;;1.52;;
36445;SDS011;22472;50.848;-1.216;2023-07-29T05:51:09;5.38;;;1.63;;
36445;SDS011;22472;50.848;-1.216;2023-07-29T05:53:36;9.45;;;1.70;;
36445;SDS011;22472;50.848;-1.216;2023-07-29T05:56:03;6.80;;;1.85;;
36445;SDS011;22472;50.848;-1.216;2023-07-29T05:58:31;5.45;;;1.67;;
36445;SDS011;22472;50.848;-1.216;2023-07-29T06:01:00;5.18;;;1.45;;
36445;SDS011;22472;50.848;-1.216;2023-07-29T06:03:27;7.85;;;2.00;;
36445;SDS011;22472;50.848;-1.216;2023-07-29T06:05:54;7.68;;;1.75;;
36445;SDS011;22472;50.848;-1.216;2023-07-29T06:08:22;5.35;;;1.40;;
36445;SDS011;22472;50.848;-1.216;2023-07-29T06:10:49;4.88;;;1.10;;
36445;SDS011;22472;50.848;-1.216;2023-07-29T06:13:16;8.70;;;1.50;;
36445;SDS011;22472;50.848;-1.216;2023-07-29T06:15:44;4.05;;;1.00;;
36445;SDS011;22472;50.848;-1.216;2023-07-29T06:18:13;7.15;;;1.15;;
36445;SDS011;22472;50.848;-1.216;2023-07-29T06:20:40;7.38;;;1.35;;
36445;SDS011;22472;50.848;-1.216;2023-07-29T06:23:08;8.43;;;1.33;;
36445;SDS011;22472;50.848;-1.216;2023-07-29T06:25:36;8.55;;;1.50;;
36445;SDS011;22472;50.848;-1.216;2023-07-29T06:28:04;7.10;;;1.20;;
36445;SDS011;22472;50.848;-1.216;2023-07-29T06:30:31;7.60;;;1.10;;
36445;SDS011;22472;50.848;-1.216;2023-07-29T06:32:58;6.65;;;1.20;;
36445;SDS011;22472;50.848;-1.216;2023-07-29T06:35:27;7.88;;;1.20;;
36445;SDS011;22472;50.848;-1.216;2023-07-29T06:37:54;4.25;;;1.10;;
36445;SDS011;22472;50.848;-1.216;2023-07-29T06:40:21;6.72;;;1.17;;
36445;SDS011;22472;50.848;-1.216;2023-07-29T06:42:49;6.10;;;0.95;;
36445;SDS011;22472;50.848;-1.216;2023-07-29T06:45:16;6.25;;;1.15;;
36445;SDS011;22472;50.848;-1.216;2023-07-29T06:47:44;4.60;;;1.00;;
36445;SDS011;22472;50.848;-1.216;2023-07-29T06:50:12;5.28;;;0.75;;
36445;SDS011;22472;50.848;-1.216;2023-07-29T06:52:40;6.55;;;1.30;;
36445;SDS011;22472;50.848;-1.216;2023-07-29T06:55:08;5.00;;;1.00;;
36445;SDS011;22472;50.848;-1.216;2023-07-29T06:57:35;6.30;;;1.13;;
36445;SDS011;22472;50.848;-1.216;2023-07-29T07:00:02;5.55;;;1.05;;
36445;SDS011;22472;50.848;-1.216;2023-07-29T07:02:30;5.30;;;1.05;;
36445;SDS011;22472;50.848;-1.216;2023-07-29T07:04:57;4.75;;;0.90;;
36445;SDS011;22472;50.848;-1.216;2023-07-29T07:07:24;7.07;;;1.30;;
36445;SDS011;22472;50.848;-1.216;2023-07-29T07:09:53;6.78;;;1.20;;
36445;SDS011;22472;50.848;-1.216;2023-07-29T07:12:20;6.57;;;1.23;;
36445;SDS011;22472;50.848;-1.216;2023-07-29T07:14:48;7.68;;;1.00;;
36445;SDS011;22472;50.848;-1.216;2023-07-29T07:17:15;5.45;;;1.10;;
36445;SDS011;22472;50.848;-1.216;2023-07-29T07:19:43;4.32;;;0.82;;
36445;SDS011;22472;50.848;-1.216;2023-07-29T07:22:11;4.85;;;1.08;;
36445;SDS011;22472;50.848;-1.216;2023-07-29T07:24:38;5.15;;;1.00;;
36445;SDS011;22472;50.848;-1.216;2023-07-29T07:27:07;7.05;;;0.88;;
36445;SDS011;22472;50.848;-1.216;2023-07-29T07:29:34;4.63;;;1.08;;
36445;SDS011;22472;50.848;-1.216;2023-07-29T07:32:02;4.60;;;1.20;;
36445;SDS011;22472;50.848;-1.216;2023-07-29T07:34:30;5.55;;;0.98;;
36445;SDS011;22472;50.848;-1.216;2023-07-29T07:36:59;5.85;;;1.30;;
36445;SDS011;22472;50.848;-1.216;2023-07-29T07:39:29;4.70;;;1.13;;
36445;SDS011;22472;50.848;-1.216;2023-07-29T07:41:56;5.25;;;1.10;;
36445;SDS011;22472;50.848;-1.216;2023-07-29T07:44:24;5.32;;;1.17;;
36445;SDS011;22472;50.848;-1.216;2023-07-29T07:46:52;3.53;;;0.88;;
36445;SDS011;22472;50.848;-1.216;2023-07-29T07:49:19;3.88;;;1.20;;
36445;SDS011;22472;50.848;-1.216;2023-07-29T07:51:47;4.63;;;1.15;;
36445;SDS011;22472;50.848;-1.216;2023-07-29T07:54:14;6.82;;;1.00;;
36445;SDS011;22472;50.848;-1.216;2023-07-29T07:56:42;7.05;;;1.15;;
36445;SDS011;22472;50.848;-1.216;2023-07-29T07:59:09;6.03;;;1.00;;
36445;SDS011;22472;50.848;-1.216;2023-07-29T08:01:39;6.75;;;1.10;;
36445;SDS011;22472;50.848;-1.216;2023-07-29T08:04:06;3.95;;;1.17;;
36445;SDS011;22472;50.848;-1.216;2023-07-29T08:06:33;4.57;;;1.05;;
36445;SDS011;22472;50.848;-1.216;2023-07-29T08:09:01;4.55;;;0.98;;
36445;SDS011;22472;50.848;-1.216;2023-07-29T08:11:29;5.55;;;1.00;;
36445;SDS011;22472;50.848;-1.216;2023-07-29T08:13:56;5.80;;;1.20;;
36445;SDS011;22472;50.848;-1.216;2023-07-29T08:16:23;5.93;;;1.10;;
36445;SDS011;22472;50.848;-1.216;2023-07-29T08:18:52;6.07;;;1.20;;
36445;SDS011;22472;50.848;-1.216;2023-07-29T08:21:19;5.13;;;1.10;;
36445;SDS011;22472;50.848;-1.216;2023-07-29T08:23:47;4.15;;;0.77;;
36445;SDS011;22472;50.848;-1.216;2023-07-29T08:26:14;7.20;;;1.00;;
36445;SDS011;22472;50.848;-1.216;2023-07-29T08:28:42;6.82;;;0.98;;
36445;SDS011;22472;50.848;-1.216;2023-07-29T08:31:09;5.82;;;0.93;;
36445;SDS011;22472;50.848;-1.216;2023-07-29T08:33:36;6.65;;;1.23;;
36445;SDS011;22472;50.848;-1.216;2023-07-29T08:36:05;3.70;;;1.00;;
36445;SDS011;22472;50.848;-1.216;2023-07-29T08:38:32;5.25;;;1.00;;
36445;SDS011;22472;50.848;-1.216;2023-07-29T08:41:03;3.67;;;1.02;;
36445;SDS011;22472;50.848;-1.216;2023-07-29T08:43:32;4.15;;;0.70;;
36445;SDS011;22472;50.848;-1.216;2023-07-29T08:45:59;6.15;;;1.15;;
36445;SDS011;22472;50.848;-1.216;2023-07-29T08:48:29;4.80;;;0.70;;
36445;SDS011;22472;50.848;-1.216;2023-07-29T08:50:59;5.63;;;1.23;;
36445;SDS011;22472;50.848;-1.216;2023-07-29T08:53:28;4.47;;;0.90;;
36445;SDS011;22472;50.848;-1.216;2023-07-29T08:55:55;6.05;;;1.08;;
36445;SDS011;22472;50.848;-1.216;2023-07-29T08:58:23;5.50;;;1.17;;
36445;SDS011;22472;50.848;-1.216;2023-07-29T09:00:50;7.45;;;1.05;;
36445;SDS011;22472;50.848;-1.216;2023-07-29T09:03:18;4.15;;;1.23;;
36445;SDS011;22472;50.848;-1.216;2023-07-29T09:05:46;4.88;;;1.13;;
36445;SDS011;22472;50.848;-1.216;2023-07-29T09:08:14;5.43;;;1.20;;
36445;SDS011;22472;50.848;-1.216;2023-07-29T09:10:43;6.28;;;1.27;;
36445;SDS011;22472;50.848;-1.216;2023-07-29T09:13:10;5.15;;;1.20;;
36445;SDS011;22472;50.848;-1.216;2023-07-29T09:15:37;7.25;;;1.15;;
36445;SDS011;22472;50.848;-1.216;2023-07-29T09:18:11;9.00;;;1.13;;
36445;SDS011;22472;50.848;-1.216;2023-07-29T09:20:39;7.10;;;1.15;;
36445;SDS011;22472;50.848;-1.216;2023-07-29T09:23:07;5.13;;;1.02;;
36445;SDS011;22472;50.848;-1.216;2023-07-29T09:25:35;4.65;;;1.00;;
36445;SDS011;22472;50.848;-1.216;2023-07-29T09:28:08;4.53;;;1.10;;
36445;SDS011;22472;50.848;-1.216;2023-07-29T09:30:37;6.35;;;1.10;;
36445;SDS011;22472;50.848;-1.216;2023-07-29T09:33:04;10.57;;;1.45;;
36445;SDS011;22472;50.848;-1.216;2023-07-29T09:35:32;14.23;;;1.92;;
36445;SDS011;22472;50.848;-1.216;2023-07-29T09:38:01;10.35;;;1.90;;
36445;SDS011;22472;50.848;-1.216;2023-07-29T09:40:33;11.40;;;2.17;;
36445;SDS011;22472;50.848;-1.216;2023-07-29T09:43:01;10.35;;;2.25;;
36445;SDS011;22472;50.848;-1.216;2023-07-29T09:45:31;10.05;;;2.08;;
36445;SDS011;22472;50.848;-1.216;2023-07-29T09:47:59;11.40;;;2.28;;
36445;SDS011;22472;50.848;-1.216;2023-07-29T09:50:27;9.60;;;1.90;;
36445;SDS011;22472;50.848;-1.216;2023-07-29T09:52:55;11.23;;;1.83;;
36445;SDS011;22472;50.848;-1.216;2023-07-29T09:55:23;8.85;;;2.28;;
36445;SDS011;22472;50.848;-1.216;2023-07-29T09:57:53;7.63;;;1.90;;
36445;SDS011;22472;50.848;-1.216;2023-07-29T10:00:20;7.57;;;1.80;;
36445;SDS011;22472;50.848;-1.216;2023-07-29T10:02:50;10.25;;;1.77;;
36445;SDS011;22472;50.848;-1.216;2023-07-29T10:05:17;10.48;;;1.90;;
36445;SDS011;22472;50.848;-1.216;2023-07-29T10:07:45;13.60;;;2.28;;
36445;SDS011;22472;50.848;-1.216;2023-07-29T10:10:13;13.73;;;2.55;;
36445;SDS011;22472;50.848;-1.216;2023-07-29T10:12:40;11.35;;;2.08;;
36445;SDS011;22472;50.848;-1.216;2023-07-29T10:15:09;11.27;;;2.70;;
36445;SDS011;22472;50.848;-1.216;2023-07-29T10:17:37;14.35;;;2.42;;
36445;SDS011;22472;50.848;-1.216;2023-07-29T10:20:08;11.50;;;2.25;;
36445;SDS011;22472;50.848;-1.216;2023-07-29T10:22:36;13.00;;;2.25;;
36445;SDS011;22472;50.848;-1.216;2023-07-29T10:25:04;11.73;;;2.33;;
36445;SDS011;22472;50.848;-1.216;2023-07-29T10:27:35;10.82;;;2.22;;
36445;SDS011;22472;50.848;-1.216;2023-07-29T10:30:04;11.63;;;2.60;;
36445;SDS011;22472;50.848;-1.216;2023-07-29T10:32:32;12.55;;;2.72;;
36445;SDS011;22472;50.848;-1.216;2023-07-29T10:35:01;11.82;;;2.25;;
36445;SDS011;22472;50.848;-1.216;2023-07-29T10:37:34;16.70;;;2.53;;
36445;SDS011;22472;50.848;-1.216;2023-07-29T10:40:02;16.88;;;3.05;;
36445;SDS011;22472;50.848;-1.216;2023-07-29T10:42:32;15.48;;;2.63;;
36445;SDS011;22472;50.848;-1.216;2023-07-29T10:45:00;14.82;;;2.78;;
36445;SDS011;22472;50.848;-1.216;2023-07-29T10:47:28;15.77;;;2.85;;
36445;SDS011;22472;50.848;-1.216;2023-07-29T10:49:56;14.13;;;3.15;;
36445;SDS011;22472;50.848;-1.216;2023-07-29T10:52:30;14.10;;;2.92;;
36445;SDS011;22472;50.848;-1.216;2023-07-29T10:54:59;13.88;;;2.67;;
36445;SDS011;22472;50.848;-1.216;2023-07-29T10:57:30;13.98;;;2.50;;
36445;SDS011;22472;50.848;-1.216;2023-07-29T10:59:58;18.77;;;3.15;;
36445;SDS011;22472;50.848;-1.216;2023-07-29T11:02:29;16.55;;;2.55;;
36445;SDS011;22472;50.848;-1.216;2023-07-29T11:04:57;15.07;;;2.60;;
36445;SDS011;22472;50.848;-1.216;2023-07-29T11:07:26;16.00;;;2.83;;
36445;SDS011;22472;50.848;-1.216;2023-07-29T11:09:54;12.68;;;2.30;;
36445;SDS011;22472;50.848;-1.216;2023-07-29T11:15:27;13.27;;;1.95;;
36445;SDS011;22472;50.848;-1.216;2023-07-29T11:17:56;12.85;;;1.95;;
36445;SDS011;22472;50.848;-1.216;2023-07-29T11:20:24;12.75;;;2.40;;
36445;SDS011;22472;50.848;-1.216;2023-07-29T11:22:52;12.90;;;2.33;;
36445;SDS011;22472;50.848;-1.216;2023-07-29T11:25:20;10.07;;;2.20;;
36445;SDS011;22472;50.848;-1.216;2023-07-29T11:27:47;12.75;;;2.42;;
36445;SDS011;22472;50.848;-1.216;2023-07-29T11:30:15;12.57;;;2.42;;
36445;SDS011;22472;50.848;-1.216;2023-07-29T11:32:44;12.80;;;2.38;;
36445;SDS011;22472;50.848;-1.216;2023-07-29T11:35:12;11.33;;;2.30;;
36445;SDS011;22472;50.848;-1.216;2023-07-29T11:37:40;11.68;;;2.45;;
36445;SDS011;22472;50.848;-1.216;2023-07-29T11:40:08;14.07;;;2.33;;
36445;SDS011;22472;50.848;-1.216;2023-07-29T11:42:36;12.93;;;2.60;;
36445;SDS011;22472;50.848;-1.216;2023-07-29T11:45:04;12.30;;;2.58;;
36445;SDS011;22472;50.848;-1.216;2023-07-29T11:47:33;12.85;;;2.72;;
36445;SDS011;22472;50.848;-1.216;2023-07-29T11:50:03;12.93;;;2.57;;
36445;SDS011;22472;50.848;-1.216;2023-07-29T11:52:31;9.95;;;2.70;;
36445;SDS011;22472;50.848;-1.216;2023-07-29T11:55:00;11.98;;;2.67;;
36445;SDS011;22472;50.848;-1.216;2023-07-29T11:57:28;14.55;;;2.83;;
36445;SDS011;22472;50.848;-1.216;2023-07-29T11:59:55;16.52;;;3.40;;
36445;SDS011;22472;50.848;-1.216;2023-07-29T12:02:23;13.10;;;2.97;;
36445;SDS011;22472;50.848;-1.216;2023-07-29T12:04:51;13.40;;;3.13;;
36445;SDS011;22472;50.848;-1.216;2023-07-29T12:07:20;15.05;;;2.80;;
36445;SDS011;22472;50.848;-1.216;2023-07-29T12:09:48;12.27;;;2.70;;
36445;SDS011;22472;50.848;-1.216;2023-07-29T12:12:16;13.35;;;2.80;;
36445;SDS011;22472;50.848;-1.216;2023-07-29T12:14:43;12.02;;;2.38;;
36445;SDS011;22472;50.848;-1.216;2023-07-29T12:17:15;14.38;;;2.55;;
36445;SDS011;22472;50.848;-1.216;2023-07-29T12:19:42;12.68;;;2.53;;
36445;SDS011;22472;50.848;-1.216;2023-07-29T12:22:10;14.23;;;2.30;;
36445;SDS011;22472;50.848;-1.216;2023-07-29T12:24:42;12.65;;;2.40;;
36445;SDS011;22472;50.848;-1.216;2023-07-29T12:27:13;10.15;;;2.40;;
36445;SDS011;22472;50.848;-1.216;2023-07-29T12:29:42;12.63;;;2.22;;
36445;SDS011;22472;50.848;-1.216;2023-07-29T12:32:11;10.50;;;2.08;;
36445;SDS011;22472;50.848;-1.216;2023-07-29T12:34:39;12.90;;;2.30;;
36445;SDS011;22472;50.848;-1.216;2023-07-29T12:37:06;10.45;;;2.03;;
36445;SDS011;22472;50.848;-1.216;2023-07-29T12:39:34;12.55;;;2.40;;
36445;SDS011;22472;50.848;-1.216;2023-07-29T12:42:03;9.93;;;1.92;;
36445;SDS011;22472;50.848;-1.216;2023-07-29T12:44:31;9.30;;;1.85;;
36445;SDS011;22472;50.848;-1.216;2023-07-29T12:46:59;11.00;;;1.90;;
36445;SDS011;22472;50.848;-1.216;2023-07-29T12:49:26;10.15;;;2.13;;
36445;SDS011;22472;50.848;-1.216;2023-07-29T12:51:54;10.65;;;2.40;;
36445;SDS011;22472;50.848;-1.216;2023-07-29T12:54:21;12.82;;;2.35;;
36445;SDS011;22472;50.848;-1.216;2023-07-29T12:56:49;14.63;;;2.53;;
36445;SDS011;22472;50.848;-1.216;2023-07-29T12:59:17;13.68;;;3.03;;
36445;SDS011;22472;50.848;-1.216;2023-07-29T13:01:45;19.90;;;2.92;;
36445;SDS011;22472;50.848;-1.216;2023-07-29T13:04:12;11.32;;;1.98;;
36445;SDS011;22472;50.848;-1.216;2023-07-29T13:06:39;10.80;;;2.50;;
36445;SDS011;22472;50.848;-1.216;2023-07-29T13:09:06;17.25;;;2.70;;
36445;SDS011;22472;50.848;-1.216;2023-07-29T13:11:34;12.63;;;2.38;;
36445;SDS011;22472;50.848;-1.216;2023-07-29T13:14:01;11.50;;;2.25;;
36445;SDS011;22472;50.848;-1.216;2023-07-29T13:16:30;13.68;;;2.40;;
36445;SDS011;22472;50.848;-1.216;2023-07-29T13:18:57;10.02;;;2.03;;
36445;SDS011;22472;50.848;-1.216;2023-07-29T13:21:24;8.55;;;1.70;;
36445;SDS011;22472;50.848;-1.216;2023-07-29T13:23:52;10.15;;;1.77;;
36445;SDS011;22472;50.848;-1.216;2023-07-29T13:26:19;10.73;;;2.03;;
36445;SDS011;22472;50.848;-1.216;2023-07-29T13:28:46;8.75;;;1.55;;
36445;SDS011;22472;50.848;-1.216;2023-07-29T13:31:13;8.93;;;1.60;;
36445;SDS011;22472;50.848;-1.216;2023-07-29T13:33:42;10.43;;;1.58;;
36445;SDS011;22472;50.848;-1.216;2023-07-29T13:36:09;12.20;;;1.70;;
36445;SDS011;22472;50.848;-1.216;2023-07-29T13:38:37;10.00;;;1.77;;
36445;SDS011;22472;50.848;-1.216;2023-07-29T13:41:04;7.10;;;1.58;;
36445;SDS011;22472;50.848;-1.216;2023-07-29T13:43:31;10.63;;;1.80;;
36445;SDS011;22472;50.848;-1.216;2023-07-29T13:46:00;10.85;;;1.80;;
36445;SDS011;22472;50.848;-1.216;2023-07-29T13:48:29;9.50;;;1.52;;
36445;SDS011;22472;50.848;-1.216;2023-07-29T13:50:59;9.00;;;1.73;;
36445;SDS011;22472;50.848;-1.216;2023-07-29T13:53:27;11.80;;;2.22;;
36445;SDS011;22472;50.848;-1.216;2023-07-29T13:55:54;11.95;;;2.45;;
36445;SDS011;22472;50.848;-1.216;2023-07-29T13:58:22;11.88;;;2.00;;
36445;SDS011;22472;50.848;-1.216;2023-07-29T14:00:49;9.60;;;1.80;;
36445;SDS011;22472;50.848;-1.216;2023-07-29T14:03:16;11.23;;;2.05;;
36445;SDS011;22472;50.848;-1.216;2023-07-29T14:05:45;10.50;;;2.00;;
36445;SDS011;22472;50.848;-1.216;2023-07-29T14:08:16;11.20;;;2.00;;
36445;SDS011;22472;50.848;-1.216;2023-07-29T14:10:46;12.70;;;2.47;;
36445;SDS011;22472;50.848;-1.216;2023-07-29T14:15:41;9.88;;;2.35;;
36445;SDS011;22472;50.848;-1.216;2023-07-29T14:18:09;11.60;;;2.10;;
36445;SDS011;22472;50.848;-1.216;2023-07-29T14:20:36;11.48;;;2.15;;
36445;SDS011;22472;50.848;-1.216;2023-07-29T14:23:04;13.88;;;2.22;;
36445;SDS011;22472;50.848;-1.216;2023-07-29T14:25:33;12.18;;;2.25;;
36445;SDS011;22472;50.848;-1.216;2023-07-29T14:28:00;13.40;;;2.03;;
36445;SDS011;22472;50.848;-1.216;2023-07-29T14:30:28;12.60;;;1.92;;
36445;SDS011;22472;50.848;-1.216;2023-07-29T14:32:55;12.27;;;2.40;;
36445;SDS011;22472;50.848;-1.216;2023-07-29T14:35:22;15.93;;;2.30;;
36445;SDS011;22472;50.848;-1.216;2023-07-29T14:37:49;15.68;;;2.40;;
36445;SDS011;22472;50.848;-1.216;2023-07-29T14:40:17;10.55;;;2.25;;
36445;SDS011;22472;50.848;-1.216;2023-07-29T14:42:45;11.75;;;2.33;;
36445;SDS011;22472;50.848;-1.216;2023-07-29T14:45:13;14.50;;;2.38;;